Time;durP1;ratioP1;P1;durP2;ratioP2;P2;SDS_P1;SDS_P2;PMS_P1;PMS_P2;Temp;Humidity;BMP_temperature;BMP_pressure;BME280_temperature;BME280_humidity;BME280_pressure;Samples;Min_cycle;Max_cycle;Signal;HPM_P1;HPM_P2
2021/04/22 00:00:12;;;;;;;8.75;2.20;;;9.10;53.60;;;;;;2073044;28;20668;-70
2021/04/22 00:01:13;;;;;;;8.85;2.40;;;9.10;53.60;;;;;;2065005;28;20106;-69
2021/04/22 00:02:13;;;;;;;7.68;2.20;;;9.00;54.10;;;;;;2073058;28;20433;-69
2021/04/22 00:03:15;;;;;;;7.18;1.95;;;9.00;53.50;;;;;;2071955;28;20026;-69
2021/04/22 00:04:16;;;;;;;7.88;2.08;;;9.00;53.60;;;;;;2073137;28;20021;-69
2021/04/22 00:05:29;;;;;;;6.93;2.05;;;9.00;53.60;;;;;;2072374;28;20032;-69
2021/04/22 00:06:30;;;;;;;8.85;2.40;;;8.90;53.70;;;;;;2072391;28;20729;-69
2021/04/22 00:07:30;;;;;;;8.63;2.28;;;8.90;53.90;;;;;;2073199;28;20022;-69
2021/04/22 00:08:31;;;;;;;7.20;2.20;;;8.90;54.40;;;;;;2073184;28;20742;-69
2021/04/22 00:09:32;;;;;;;10.10;2.40;;;8.90;53.90;;;;;;2073129;28;20037;-69
2021/04/22 00:10:37;;;;;;;8.27;2.28;;;8.90;53.90;;;;;;2073028;28;20030;-70
2021/04/22 00:11:38;;;;;;;10.52;2.30;;;8.80;53.70;;;;;;2072586;28;20153;-70
2021/04/22 00:12:39;;;;;;;11.85;2.35;;;8.80;53.60;;;;;;2072456;28;20125;-70
2021/04/22 00:13:40;;;;;;;7.60;2.05;;;8.80;53.80;;;;;;2069819;28;20046;-69
2021/04/22 00:14:41;;;;;;;7.05;2.15;;;8.80;53.60;;;;;;2068400;28;20037;-69
2021/04/22 00:15:42;;;;;;;6.28;2.00;;;8.80;53.70;;;;;;2072371;28;20053;-69
2021/04/22 00:16:43;;;;;;;9.25;2.53;;;8.80;54.10;;;;;;2068962;28;20109;-70
2021/04/22 00:17:48;;;;;;;9.20;2.40;;;8.70;53.60;;;;;;2068967;28;20513;-70
2021/04/22 00:18:48;;;;;;;6.72;2.13;;;8.70;53.90;;;;;;2069258;28;20045;-70
2021/04/22 00:19:49;;;;;;;9.32;2.30;;;8.60;53.70;;;;;;2072623;28;20049;-70
2021/04/22 00:20:50;;;;;;;8.07;2.00;;;8.60;53.70;;;;;;2077446;28;20460;-70
2021/04/22 00:21:50;;;;;;;9.40;2.22;;;8.50;53.80;;;;;;2073113;28;20026;-70
2021/04/22 00:22:52;;;;;;;6.90;2.20;;;8.60;54.10;;;;;;2072957;28;20022;-70
2021/04/22 00:23:53;;;;;;;7.40;2.30;;;8.60;54.00;;;;;;2073004;28;20025;-69
2021/04/22 00:24:53;;;;;;;6.95;2.15;;;8.60;54.00;;;;;;2071547;28;20040;-69
2021/04/22 00:25:54;;;;;;;7.68;2.30;;;8.50;54.20;;;;;;2066905;28;20390;-70
2021/04/22 00:26:54;;;;;;;6.32;2.00;;;8.50;54.40;;;;;;2070448;28;20034;-70
2021/04/22 00:27:57;;;;;;;8.00;2.25;;;8.50;54.80;;;;;;2072716;28;20026;-69
2021/04/22 00:28:58;;;;;;;6.68;2.10;;;8.40;54.60;;;;;;2066847;28;20030;-70
2021/04/22 00:29:58;;;;;;;7.68;2.22;;;8.40;54.60;;;;;;2070836;28;20030;-70
2021/04/22 00:30:59;;;;;;;8.68;2.55;;;8.40;54.60;;;;;;2073036;28;20030;-70
2021/04/22 00:32:00;;;;;;;10.73;2.35;;;8.40;54.70;;;;;;2072864;28;20116;-70
2021/04/22 00:33:07;;;;;;;8.82;2.40;;;8.40;54.80;;;;;;2066479;28;20401;-70
2021/04/22 00:34:08;;;;;;;10.55;2.50;;;8.40;55.20;;;;;;2072850;28;20029;-70
2021/04/22 00:35:10;;;;;;;10.18;2.42;;;8.30;55.40;;;;;;2081117;28;20063;-70
2021/04/22 00:36:10;;;;;;;8.93;2.30;;;8.30;55.50;;;;;;2080517;28;20076;-70
2021/04/22 00:37:11;;;;;;;6.40;2.03;;;8.30;55.40;;;;;;2081082;28;20103;-70
2021/04/22 00:38:12;;;;;;;11.07;2.50;;;8.20;55.50;;;;;;2080983;28;20029;-70
2021/04/22 00:39:13;;;;;;;12.13;2.20;;;8.20;55.70;;;;;;2073350;28;20109;-70
2021/04/22 00:40:18;;;;;;;9.13;2.58;;;8.20;55.60;;;;;;2073118;28;20656;-69
2021/04/22 00:41:19;;;;;;;9.52;2.20;;;8.20;55.40;;;;;;2072302;28;20116;-69
2021/04/22 00:42:19;;;;;;;7.63;2.13;;;8.20;55.50;;;;;;2064808;28;20382;-69
2021/04/22 00:43:21;;;;;;;8.20;2.20;;;8.20;55.60;;;;;;2064696;28;20014;-69
2021/04/22 00:44:21;;;;;;;7.65;2.47;;;8.20;55.60;;;;;;2065811;28;20483;-69
2021/04/22 00:45:22;;;;;;;9.02;2.67;;;8.20;55.80;;;;;;2071446;28;20017;-70
2021/04/22 00:46:24;;;;;;;9.95;2.50;;;8.20;55.70;;;;;;2073060;28;20477;-69
2021/04/22 00:47:25;;;;;;;6.90;2.38;;;8.20;55.80;;;;;;2079980;28;20029;-69
2021/04/22 00:48:26;;;;;;;6.90;2.28;;;8.10;56.10;;;;;;2072584;28;20018;-69
2021/04/22 00:49:37;;;;;;;7.13;2.50;;;8.10;56.20;;;;;;2072517;28;20072;-69
2021/04/22 00:50:40;;;;;;;10.23;2.78;;;8.00;56.20;;;;;;2072703;28;20029;-69
2021/04/22 00:51:41;;;;;;;11.50;2.67;;;8.00;56.30;;;;;;2071976;28;20100;-69
2021/04/22 00:52:42;;;;;;;7.20;2.40;;;8.00;56.50;;;;;;2072021;28;20088;-69
2021/04/22 00:53:43;;;;;;;8.32;2.35;;;7.90;56.60;;;;;;2076110;28;20025;-70
2021/04/22 00:54:44;;;;;;;7.32;2.60;;;7.90;56.90;;;;;;2077810;28;20980;-69
2021/04/22 00:55:45;;;;;;;10.57;2.47;;;7.80;57.00;;;;;;2076096;28;20130;-69
2021/04/22 00:56:45;;;;;;;8.43;2.30;;;7.80;56.90;;;;;;2080161;28;20039;-69
2021/04/22 00:57:46;;;;;;;7.03;2.00;;;7.80;57.00;;;;;;2071912;28;20112;-70
2021/04/22 00:58:47;;;;;;;9.25;2.15;;;7.80;57.20;;;;;;2072026;28;20032;-69
2021/04/22 00:59:47;;;;;;;10.60;2.42;;;7.80;57.60;;;;;;2072188;28;20104;-69
2021/04/22 01:00:59;;;;;;;10.15;2.22;;;7.80;57.70;;;;;;2072470;28;20053;-70
2021/04/22 01:02:20;;;;;;;10.77;2.40;;;7.70;57.80;;;;;;2080072;28;20544;-69
2021/04/22 01:03:21;;;;;;;8.68;2.58;;;7.60;57.80;;;;;;2070178;28;20632;-69
2021/04/22 01:04:22;;;;;;;16.77;2.67;;;7.60;58.00;;;;;;2071279;28;20034;-70
2021/04/22 01:05:39;;;;;;;6.90;2.25;;;7.60;57.80;;;;;;2065755;28;20018;-69
2021/04/22 01:06:40;;;;;;;8.50;2.15;;;7.50;57.50;;;;;;2072272;28;20034;-69
2021/04/22 01:07:42;;;;;;;7.40;2.17;;;7.40;58.00;;;;;;2072490;28;20120;-69
2021/04/22 01:08:42;;;;;;;7.88;2.13;;;7.40;58.40;;;;;;2072454;28;20038;-69
2021/04/22 01:09:43;;;;;;;8.43;2.20;;;7.40;58.70;;;;;;2072497;28;20061;-69
2021/04/22 01:10:44;;;;;;;7.90;2.38;;;7.30;59.00;;;;;;2072536;28;20037;-69
2021/04/22 01:11:45;;;;;;;9.68;2.33;;;7.30;58.60;;;;;;2072526;28;20104;-69
2021/04/22 01:12:47;;;;;;;8.07;2.20;;;7.30;58.30;;;;;;2072480;28;20073;-69
2021/04/22 01:13:47;;;;;;;6.13;2.20;;;7.30;58.40;;;;;;2075344;28;20468;-69
2021/04/22 01:14:48;;;;;;;7.35;2.50;;;7.30;58.40;;;;;;2076458;28;20029;-69
2021/04/22 01:15:49;;;;;;;10.63;2.55;;;7.30;58.80;;;;;;2079807;28;20091;-69
2021/04/22 01:16:50;;;;;;;9.43;2.20;;;7.20;59.20;;;;;;2072794;28;20508;-70
2021/04/22 01:17:51;;;;;;;9.75;2.17;;;7.10;59.40;;;;;;2081241;28;20036;-69
2021/04/22 01:18:52;;;;;;;9.93;2.30;;;7.10;59.50;;;;;;2080599;28;20029;-69
2021/04/22 01:19:52;;;;;;;9.13;2.50;;;7.10;60.00;;;;;;2073197;28;20041;-70
2021/04/22 01:20:53;;;;;;;8.32;2.40;;;7.10;59.30;;;;;;2072682;28;20045;-69
2021/04/22 01:21:54;;;;;;;11.20;2.70;;;7.00;59.40;;;;;;2072689;28;20030;-69
2021/04/22 01:22:57;;;;;;;10.73;2.50;;;7.00;59.10;;;;;;2072573;28;20033;-69
2021/04/22 01:23:57;;;;;;;13.20;2.40;;;7.00;58.50;;;;;;2072787;28;20029;-69
2021/04/22 01:24:58;;;;;;;10.23;2.45;;;6.90;58.50;;;;;;2072799;28;20060;-69
2021/04/22 01:25:59;;;;;;;7.68;2.30;;;6.90;58.70;;;;;;2072222;28;20120;-69
2021/04/22 01:26:59;;;;;;;12.27;2.85;;;6.90;58.90;;;;;;2072578;28;20085;-69
2021/04/22 01:28:03;;;;;;;9.68;2.30;;;6.80;59.20;;;;;;2072023;28;20030;-69
2021/04/22 01:29:07;;;;;;;11.25;2.65;;;6.80;59.10;;;;;;2072073;28;20041;-69
2021/04/22 01:30:15;;;;;;;11.77;2.70;;;6.80;59.00;;;;;;2072527;28;20037;-69
2021/04/22 01:31:16;;;;;;;6.82;2.20;;;6.80;59.10;;;;;;2065009;28;20061;-69
2021/04/22 01:32:17;;;;;;;9.18;2.47;;;6.80;59.20;;;;;;2072708;28;20030;-70
2021/04/22 01:33:21;;;;;;;10.07;2.50;;;6.80;59.60;;;;;;2080196;28;20057;-69
2021/04/22 01:34:21;;;;;;;12.50;2.97;;;6.70;59.50;;;;;;2079901;28;20041;-69
2021/04/22 01:35:26;;;;;;;11.88;2.83;;;6.60;59.80;;;;;;2080118;28;20056;-69
2021/04/22 01:36:32;;;;;;;7.15;2.30;;;6.50;60.10;;;;;;2072374;28;20502;-71
2021/04/22 01:37:32;;;;;;;9.30;2.55;;;6.50;61.40;;;;;;2072448;28;20076;-70
2021/04/22 01:38:34;;;;;;;10.00;2.58;;;6.50;61.70;;;;;;2072564;28;20517;-70
2021/04/22 01:39:35;;;;;;;9.07;2.80;;;6.50;60.90;;;;;;2069297;28;20053;-70
2021/04/22 01:40:36;;;;;;;11.00;2.55;;;6.40;60.90;;;;;;2067200;28;20026;-70
2021/04/22 01:41:37;;;;;;;11.77;2.80;;;6.40;61.00;;;;;;2072429;28;20037;-70
2021/04/22 01:42:39;;;;;;;13.38;2.83;;;6.40;61.40;;;;;;2071714;28;20029;-70
2021/04/22 01:43:39;;;;;;;11.23;2.65;;;6.40;62.50;;;;;;2071744;28;20117;-70
2021/04/22 01:44:40;;;;;;;6.93;2.40;;;6.30;62.90;;;;;;2079865;28;20363;-70
2021/04/22 01:45:41;;;;;;;12.13;2.60;;;6.30;63.00;;;;;;2079719;28;20736;-70
2021/04/22 01:46:41;;;;;;;9.23;2.50;;;6.30;63.00;;;;;;2072066;28;20592;-70
2021/04/22 01:47:43;;;;;;;13.15;2.63;;;6.30;62.50;;;;;;2072072;28;20022;-69
2021/04/22 01:48:44;;;;;;;10.93;2.45;;;6.30;63.40;;;;;;2072279;28;20033;-70
2021/04/22 01:49:45;;;;;;;15.95;2.80;;;6.30;63.60;;;;;;2072215;28;20138;-70
2021/04/22 01:50:45;;;;;;;10.88;2.50;;;6.30;63.50;;;;;;2072298;28;20033;-70
2021/04/22 01:51:46;;;;;;;13.60;2.53;;;6.20;63.30;;;;;;2072209;28;20405;-70
2021/04/22 01:52:47;;;;;;;9.63;2.35;;;6.20;64.10;;;;;;2072369;28;20034;-70
2021/04/22 01:53:49;;;;;;;10.65;2.60;;;6.20;66.10;;;;;;2079707;28;20052;-70
2021/04/22 01:54:49;;;;;;;11.95;2.60;;;6.20;64.10;;;;;;2079266;28;20183;-70
2021/04/22 01:55:51;;;;;;;16.52;3.00;;;6.20;64.30;;;;;;2071899;28;20034;-70
2021/04/22 01:56:52;;;;;;;13.18;2.80;;;6.10;64.40;;;;;;2072107;28;20061;-70
2021/04/22 01:57:53;;;;;;;8.73;2.70;;;6.10;64.10;;;;;;2072161;28;20030;-70
2021/04/22 01:58:54;;;;;;;14.52;2.90;;;6.10;64.30;;;;;;2072089;28;20129;-70
2021/04/22 01:59:55;;;;;;;14.15;2.97;;;6.10;64.30;;;;;;2072218;28;20121;-70
2021/04/22 02:00:57;;;;;;;13.48;3.10;;;6.10;64.20;;;;;;2072135;28;20653;-70
2021/04/22 02:01:58;;;;;;;16.70;3.08;;;6.10;64.90;;;;;;2071522;28;20104;-70
2021/04/22 02:02:59;;;;;;;14.45;2.78;;;6.00;64.80;;;;;;2071702;28;20030;-70
2021/04/22 02:03:59;;;;;;;16.45;3.05;;;6.00;64.40;;;;;;2070384;28;20489;-70
2021/04/22 02:05:00;;;;;;;12.15;3.10;;;6.00;64.80;;;;;;2072138;28;20049;-70
2021/04/22 02:06:02;;;;;;;12.52;2.90;;;6.00;64.60;;;;;;2071782;28;20085;-70
2021/04/22 02:07:05;;;;;;;14.80;3.08;;;5.90;66.10;;;;;;2072368;28;20101;-70
2021/04/22 02:08:08;;;;;;;11.88;2.60;;;5.90;65.80;;;;;;2072726;28;20084;-70
2021/04/22 02:09:08;;;;;;;11.57;2.78;;;5.90;66.50;;;;;;2073027;28;20096;-70
2021/04/22 02:10:10;;;;;;;12.30;2.78;;;5.90;65.40;;;;;;2072787;28;20565;-70
2021/04/22 02:11:10;;;;;;;10.43;2.78;;;5.80;65.10;;;;;;2072843;28;20445;-70
2021/04/22 02:12:11;;;;;;;10.95;2.45;;;5.90;65.00;;;;;;2072648;28;20034;-70
2021/04/22 02:13:14;;;;;;;14.02;2.72;;;5.80;65.30;;;;;;2072622;28;20362;-70
2021/04/22 02:14:14;;;;;;;14.20;3.03;;;5.80;66.80;;;;;;2072616;28;20533;-70
2021/04/22 02:15:21;;;;;;;14.13;2.80;;;5.80;66.30;;;;;;2072366;28;20053;-70
2021/04/22 02:16:21;;;;;;;12.07;2.55;;;5.70;65.50;;;;;;2071994;28;20033;-70
2021/04/22 02:17:22;;;;;;;14.52;2.80;;;5.70;65.50;;;;;;2072501;28;20691;-70
2021/04/22 02:18:23;;;;;;;12.48;2.83;;;5.70;65.10;;;;;;2072826;28;20026;-70
2021/04/22 02:19:23;;;;;;;10.52;2.90;;;5.70;66.20;;;;;;2080080;28;20531;-70
2021/04/22 02:20:25;;;;;;;12.90;3.00;;;5.60;66.20;;;;;;2080789;28;20022;-70
2021/04/22 02:21:25;;;;;;;13.20;2.85;;;5.60;66.70;;;;;;2071878;28;20029;-71
2021/04/22 02:22:26;;;;;;;16.58;3.45;;;5.60;66.80;;;;;;2067399;28;20374;-70
2021/04/22 02:23:28;;;;;;;15.43;3.35;;;5.60;67.40;;;;;;2073609;28;20030;-70
2021/04/22 02:24:29;;;;;;;15.48;3.17;;;5.50;66.50;;;;;;2071917;28;20114;-70
2021/04/22 02:25:29;;;;;;;21.88;3.65;;;5.50;66.70;;;;;;2074121;28;20037;-70
2021/04/22 02:26:30;;;;;;;15.82;3.45;;;5.50;67.50;;;;;;2073216;28;20428;-70
2021/04/22 02:27:31;;;;;;;20.85;3.28;;;5.50;67.60;;;;;;2074984;28;20083;-70
2021/04/22 02:28:31;;;;;;;14.75;3.13;;;5.50;68.10;;;;;;2075125;28;20040;-70
2021/04/22 02:29:32;;;;;;;15.48;3.22;;;5.40;67.90;;;;;;2074320;28;20083;-70
2021/04/22 02:30:36;;;;;;;13.52;2.92;;;5.40;67.30;;;;;;2073930;28;20247;-70
2021/04/22 02:31:37;;;;;;;15.73;3.28;;;5.40;67.20;;;;;;2070859;28;20085;-70
2021/04/22 02:32:38;;;;;;;13.93;3.33;;;5.30;67.10;;;;;;2069595;28;20029;-70
2021/04/22 02:33:38;;;;;;;15.63;3.35;;;5.40;67.50;;;;;;2076056;28;20381;-70
2021/04/22 02:34:39;;;;;;;15.85;3.47;;;5.30;69.00;;;;;;2076186;28;20041;-71
2021/04/22 02:35:42;;;;;;;16.08;3.55;;;5.30;69.30;;;;;;2081018;28;20037;-70
2021/04/22 02:36:43;;;;;;;18.58;3.72;;;5.30;69.00;;;;;;2072221;28;20026;-70
2021/04/22 02:37:44;;;;;;;15.48;3.42;;;5.30;69.60;;;;;;2076685;28;20038;-71
2021/04/22 02:38:45;;;;;;;16.45;3.42;;;5.30;69.30;;;;;;2083993;28;20049;-70
2021/04/22 02:39:45;;;;;;;15.68;3.70;;;5.20;69.90;;;;;;2082661;28;20036;-70
2021/04/22 02:40:48;;;;;;;16.42;3.97;;;5.20;69.80;;;;;;2074717;28;20489;-70
2021/04/22 02:41:48;;;;;;;19.95;3.92;;;5.20;69.50;;;;;;2070026;28;20066;-70
2021/04/22 02:42:51;;;;;;;19.35;4.15;;;5.20;68.40;;;;;;2066207;28;20035;-70
2021/04/22 02:43:51;;;;;;;15.43;3.97;;;5.20;67.80;;;;;;2070246;28;20025;-70
2021/04/22 02:44:52;;;;;;;15.20;3.70;;;5.20;68.20;;;;;;2073089;28;20113;-70
2021/04/22 02:45:55;;;;;;;19.42;4.35;;;5.20;68.80;;;;;;2073277;28;20080;-70
2021/04/22 02:46:55;;;;;;;17.40;4.25;;;5.20;69.00;;;;;;2073728;28;20541;-70
2021/04/22 02:47:57;;;;;;;17.50;4.07;;;5.10;67.50;;;;;;2073579;28;20160;-70
2021/04/22 02:48:58;;;;;;;15.20;4.10;;;5.10;67.20;;;;;;2073910;28;20026;-70
2021/04/22 02:49:58;;;;;;;19.55;4.20;;;5.10;67.60;;;;;;2075161;28;20033;-70
2021/04/22 02:51:00;;;;;;;14.73;4.03;;;5.10;67.70;;;;;;2079414;28;20030;-70
2021/04/22 02:52:01;;;;;;;20.98;4.20;;;5.10;68.20;;;;;;2081350;28;20032;-70
2021/04/22 02:53:03;;;;;;;18.15;4.68;;;5.10;68.00;;;;;;2073782;28;20037;-69
2021/04/22 02:54:04;;;;;;;16.30;4.28;;;5.10;68.70;;;;;;2081742;28;20048;-70
2021/04/22 02:55:06;;;;;;;19.80;4.30;;;5.10;68.30;;;;;;2062427;28;20397;-70
2021/04/22 02:56:07;;;;;;;17.00;4.25;;;5.00;69.20;;;;;;2071762;28;20046;-70
2021/04/22 02:57:10;;;;;;;15.30;4.25;;;5.00;68.60;;;;;;2073263;28;20664;-70
2021/04/22 02:58:11;;;;;;;17.77;4.22;;;5.00;69.40;;;;;;2073134;28;20073;-70
2021/04/22 02:59:12;;;;;;;16.40;4.40;;;5.00;69.50;;;;;;2073274;28;20739;-70
2021/04/22 03:00:17;;;;;;;19.23;4.68;;;5.00;70.40;;;;;;2073748;28;20041;-71
2021/04/22 03:01:17;;;;;;;20.63;4.95;;;5.00;70.30;;;;;;2066325;28;20023;-70
2021/04/22 03:02:18;;;;;;;17.20;4.38;;;5.00;70.50;;;;;;2073703;28;20072;-70
2021/04/22 03:03:19;;;;;;;17.48;4.35;;;5.00;70.00;;;;;;2073705;28;20018;-70
2021/04/22 03:04:19;;;;;;;20.80;4.55;;;4.90;70.30;;;;;;2072815;28;20041;-70
2021/04/22 03:05:20;;;;;;;17.58;4.80;;;4.90;69.70;;;;;;2066527;28;20024;-69
2021/04/22 03:06:21;;;;;;;19.35;4.63;;;5.00;69.80;;;;;;2073281;28;20022;-69
2021/04/22 03:07:21;;;;;;;20.80;4.90;;;4.90;70.00;;;;;;2073401;28;20105;-69
2021/04/22 03:08:23;;;;;;;16.75;4.95;;;4.90;71.40;;;;;;2072238;28;20117;-69
2021/04/22 03:09:23;;;;;;;16.20;4.32;;;4.90;70.20;;;;;;2065255;28;20035;-70
2021/04/22 03:10:26;;;;;;;15.52;4.53;;;4.90;70.30;;;;;;2066094;28;20038;-69
2021/04/22 03:11:27;;;;;;;17.10;4.90;;;4.80;70.50;;;;;;2072708;28;20451;-70
2021/04/22 03:12:27;;;;;;;18.00;4.82;;;4.80;70.90;;;;;;2074856;28;20049;-69
2021/04/22 03:13:28;;;;;;;17.30;4.55;;;4.80;71.50;;;;;;2073418;28;20427;-70
2021/04/22 03:14:29;;;;;;;16.42;4.60;;;4.80;70.70;;;;;;2071323;28;20385;-69
2021/04/22 03:15:30;;;;;;;14.68;4.28;;;4.80;70.40;;;;;;2065381;28;20030;-69
2021/04/22 03:16:30;;;;;;;20.80;4.97;;;4.80;70.30;;;;;;2064932;28;20570;-69
2021/04/22 03:17:31;;;;;;;18.20;4.38;;;4.80;70.70;;;;;;2067670;28;20027;-69
2021/04/22 03:18:32;;;;;;;18.75;4.70;;;4.80;71.10;;;;;;2070853;28;20018;-69
2021/04/22 03:19:32;;;;;;;18.75;4.95;;;4.80;71.60;;;;;;2067856;28;20085;-69
2021/04/22 03:20:33;;;;;;;19.33;4.80;;;4.70;71.20;;;;;;2080889;28;20026;-70
2021/04/22 03:21:33;;;;;;;16.77;4.50;;;4.70;71.00;;;;;;2080801;28;20040;-69
2021/04/22 03:22:34;;;;;;;17.55;4.93;;;4.70;71.30;;;;;;2073416;28;20124;-70
2021/04/22 03:23:35;;;;;;;20.52;4.68;;;4.70;71.00;;;;;;2073411;28;20081;-69
2021/04/22 03:24:36;;;;;;;17.88;4.45;;;4.70;72.10;;;;;;2072776;28;20129;-69
2021/04/22 03:25:36;;;;;;;19.58;4.20;;;4.70;72.10;;;;;;2080784;28;20091;-69
2021/04/22 03:26:37;;;;;;;16.63;4.90;;;4.70;72.10;;;;;;2072372;28;20129;-69
2021/04/22 03:27:38;;;;;;;19.10;4.68;;;4.60;72.00;;;;;;2072700;28;20386;-70
2021/04/22 03:28:38;;;;;;;18.27;4.50;;;4.60;72.00;;;;;;2072602;28;20478;-69
2021/04/22 03:29:39;;;;;;;22.00;4.82;;;4.60;72.50;;;;;;2072676;28;20033;-69
2021/04/22 03:30:39;;;;;;;18.20;4.50;;;4.60;72.20;;;;;;2073422;28;20084;-70
2021/04/22 03:31:40;;;;;;;16.83;4.63;;;4.60;72.10;;;;;;2073389;28;20069;-69
2021/04/22 03:32:41;;;;;;;14.60;4.13;;;4.60;71.90;;;;;;2080777;28;20468;-69
2021/04/22 03:33:41;;;;;;;18.17;4.80;;;4.60;72.10;;;;;;2080934;28;20041;-69
2021/04/22 03:34:42;;;;;;;18.02;4.35;;;4.60;72.00;;;;;;2073396;28;20794;-69
2021/04/22 03:35:42;;;;;;;17.52;4.65;;;4.60;71.90;;;;;;2073282;28;20030;-69
2021/04/22 03:36:43;;;;;;;17.00;4.50;;;4.50;72.00;;;;;;2073452;28;20410;-69
2021/04/22 03:37:44;;;;;;;19.23;4.35;;;4.50;72.10;;;;;;2073824;28;20057;-69
2021/04/22 03:38:45;;;;;;;20.00;4.35;;;4.50;72.50;;;;;;2080865;28;20025;-69
2021/04/22 03:39:46;;;;;;;17.30;4.55;;;4.50;73.10;;;;;;2072578;28;20723;-69
2021/04/22 03:40:46;;;;;;;23.40;5.00;;;4.50;72.90;;;;;;2072591;28;20034;-69
2021/04/22 03:41:47;;;;;;;19.10;4.28;;;4.50;73.10;;;;;;2064439;28;20106;-69
2021/04/22 03:42:48;;;;;;;19.83;4.72;;;4.50;73.50;;;;;;2072594;28;20389;-69
2021/04/22 03:43:49;;;;;;;18.83;4.60;;;4.50;73.10;;;;;;2069881;28;20025;-69
2021/04/22 03:44:50;;;;;;;18.20;5.07;;;4.40;73.10;;;;;;2073174;28;20617;-69
2021/04/22 03:45:50;;;;;;;16.58;4.20;;;4.40;73.30;;;;;;2072774;28;20084;-69
2021/04/22 03:46:51;;;;;;;16.65;4.43;;;4.40;73.60;;;;;;2072457;28;20029;-69
2021/04/22 03:47:52;;;;;;;18.42;4.45;;;4.40;73.40;;;;;;2072502;28;20083;-69
2021/04/22 03:48:52;;;;;;;16.25;4.38;;;4.50;74.00;;;;;;2072453;28;20049;-69
2021/04/22 03:49:53;;;;;;;21.88;5.20;;;4.40;73.90;;;;;;2072420;28;20539;-69
2021/04/22 03:50:53;;;;;;;24.88;5.03;;;4.40;73.40;;;;;;2080652;28;20370;-69
2021/04/22 03:51:54;;;;;;;26.50;5.13;;;4.50;73.10;;;;;;2080719;28;20029;-69
2021/04/22 03:52:55;;;;;;;21.77;5.20;;;4.50;73.20;;;;;;2080693;28;20044;-69
2021/04/22 03:53:55;;;;;;;17.98;4.60;;;4.40;73.30;;;;;;2073199;28;20029;-69
2021/04/22 03:54:56;;;;;;;19.90;4.80;;;4.50;74.10;;;;;;2072764;28;20068;-69
2021/04/22 03:55:56;;;;;;;21.52;4.40;;;4.40;73.90;;;;;;2072787;28;20034;-69
2021/04/22 03:57:02;;;;;;;24.00;4.72;;;4.40;73.70;;;;;;2073051;28;20116;-69
2021/04/22 03:58:03;;;;;;;18.60;4.53;;;4.40;73.90;;;;;;2072918;28;20034;-70
2021/04/22 03:59:04;;;;;;;24.52;4.88;;;4.50;73.70;;;;;;2072937;28;20026;-70
2021/04/22 04:00:10;;;;;;;21.83;4.13;;;4.50;73.70;;;;;;2073031;28;20482;-69
2021/04/22 04:01:11;;;;;;;21.15;4.63;;;4.50;74.10;;;;;;2073087;28;20095;-69
2021/04/22 04:02:12;;;;;;;19.75;4.95;;;4.50;74.30;;;;;;2072362;28;20029;-69
2021/04/22 04:03:12;;;;;;;20.42;4.50;;;4.50;75.20;;;;;;2072999;28;20033;-69
2021/04/22 04:04:13;;;;;;;18.20;4.40;;;4.50;73.80;;;;;;2065023;28;20031;-69
2021/04/22 04:05:14;;;;;;;20.23;4.65;;;4.50;74.20;;;;;;2064954;28;20033;-69
2021/04/22 04:06:14;;;;;;;16.58;4.30;;;4.50;74.80;;;;;;2072507;28;20488;-69
2021/04/22 04:07:15;;;;;;;19.55;4.40;;;4.50;74.60;;;;;;2072968;28;20022;-69
2021/04/22 04:08:16;;;;;;;23.38;4.82;;;4.50;74.50;;;;;;2080526;28;20029;-69
2021/04/22 04:09:17;;;;;;;17.45;4.32;;;4.50;74.80;;;;;;2080471;28;20421;-70
2021/04/22 04:10:17;;;;;;;18.45;4.60;;;4.50;75.50;;;;;;2073098;28;20049;-69
2021/04/22 04:11:18;;;;;;;20.67;4.70;;;4.50;74.40;;;;;;2072299;28;20034;-69
2021/04/22 04:12:18;;;;;;;17.20;4.30;;;4.50;75.10;;;;;;2072249;28;20093;-69
2021/04/22 04:13:19;;;;;;;18.27;4.57;;;4.50;75.50;;;;;;2080578;28;20037;-69
2021/04/22 04:14:20;;;;;;;21.83;4.22;;;4.50;75.80;;;;;;2073052;28;20109;-69
2021/04/22 04:15:20;;;;;;;21.02;4.60;;;4.50;75.50;;;;;;2073111;28;20493;-69
2021/04/22 04:16:21;;;;;;;14.52;3.95;;;4.50;76.50;;;;;;2072634;28;20513;-69
2021/04/22 04:17:22;;;;;;;22.08;4.68;;;4.50;76.00;;;;;;2072914;28;20389;-69
2021/04/22 04:18:23;;;;;;;17.38;4.13;;;4.50;76.10;;;;;;2072951;28;20048;-69
2021/04/22 04:19:23;;;;;;;19.73;4.50;;;4.60;75.80;;;;;;2071424;28;20036;-69
2021/04/22 04:20:24;;;;;;;23.42;4.68;;;4.60;76.00;;;;;;2066339;28;20482;-69
2021/04/22 04:21:25;;;;;;;21.38;4.82;;;4.60;75.50;;;;;;2071426;28;20022;-69
2021/04/22 04:22:25;;;;;;;25.42;4.85;;;4.60;75.60;;;;;;2065820;28;20116;-68
2021/04/22 04:23:26;;;;;;;19.55;4.57;;;4.60;74.70;;;;;;2072311;28;20117;-69
2021/04/22 04:24:27;;;;;;;19.58;4.82;;;4.60;74.80;;;;;;2065481;28;20050;-69
2021/04/22 04:25:27;;;;;;;26.92;5.47;;;4.60;75.40;;;;;;2064081;28;20034;-69
2021/04/22 04:26:28;;;;;;;20.15;4.85;;;4.60;75.30;;;;;;2071848;28;20038;-69
2021/04/22 04:27:28;;;;;;;23.17;5.00;;;4.70;75.30;;;;;;2072631;28;20390;-70
2021/04/22 04:28:29;;;;;;;25.25;5.43;;;4.70;75.30;;;;;;2080360;28;20087;-69
2021/04/22 04:29:30;;;;;;;23.17;5.43;;;4.70;74.40;;;;;;2080308;28;20564;-69
2021/04/22 04:30:30;;;;;;;16.50;4.47;;;4.70;73.70;;;;;;2080223;28;20032;-70
2021/04/22 04:31:31;;;;;;;21.42;4.68;;;4.70;73.60;;;;;;2077872;28;20033;-70
2021/04/22 04:32:32;;;;;;;21.42;5.05;;;4.70;73.80;;;;;;2067257;28;20508;-70
2021/04/22 04:33:32;;;;;;;24.75;4.57;;;4.70;73.80;;;;;;2072773;28;20109;-70
2021/04/22 04:34:33;;;;;;;23.98;5.20;;;4.70;74.30;;;;;;2072737;28;20856;-70
2021/04/22 04:35:34;;;;;;;19.35;5.07;;;4.70;75.10;;;;;;2069292;28;20057;-70
2021/04/22 04:36:34;;;;;;;23.92;5.03;;;4.70;74.70;;;;;;2066467;28;20397;-70
2021/04/22 04:37:35;;;;;;;24.63;5.00;;;4.70;75.10;;;;;;2072059;28;20082;-70
2021/04/22 04:38:36;;;;;;;22.20;5.28;;;4.70;75.50;;;;;;2080183;28;20034;-70
2021/04/22 04:39:37;;;;;;;24.27;5.07;;;4.60;75.00;;;;;;2080195;28;20029;-70
2021/04/22 04:40:37;;;;;;;24.58;5.20;;;4.70;75.30;;;;;;2080362;28;20744;-71
2021/04/22 04:41:38;;;;;;;17.80;5.20;;;4.70;75.70;;;;;;2076895;28;20022;-70
2021/04/22 04:42:39;;;;;;;24.35;4.68;;;4.70;74.60;;;;;;2075591;28;20444;-70
2021/04/22 04:43:40;;;;;;;22.33;4.95;;;4.60;75.20;;;;;;2072577;28;20044;-70
2021/04/22 04:44:41;;;;;;;24.20;5.25;;;4.70;75.50;;;;;;2072819;28;20025;-70
2021/04/22 04:45:41;;;;;;;25.50;5.20;;;4.70;75.50;;;;;;2072489;28;20541;-70
2021/04/22 04:46:42;;;;;;;27.70;5.25;;;4.70;75.80;;;;;;2072542;28;20034;-70
2021/04/22 04:47:46;;;;;;;18.92;4.70;;;4.60;75.10;;;;;;2073007;28;20014;-72
2021/04/22 04:48:47;;;;;;;22.13;5.20;;;4.70;74.70;;;;;;2073485;28;20032;-70
2021/04/22 04:49:48;;;;;;;19.05;4.50;;;4.70;75.30;;;;;;2073380;28;20440;-70
2021/04/22 04:50:48;;;;;;;21.83;5.28;;;4.70;75.70;;;;;;2081472;28;20075;-70
2021/04/22 04:51:49;;;;;;;26.20;5.95;;;4.70;75.20;;;;;;2072617;28;20034;-70
2021/04/22 04:52:50;;;;;;;17.30;5.20;;;4.70;75.30;;;;;;2067410;28;20034;-70
2021/04/22 04:53:51;;;;;;;26.35;5.18;;;4.70;75.80;;;;;;2064884;28;20053;-71
2021/04/22 04:54:52;;;;;;;21.90;5.38;;;4.70;76.10;;;;;;2070347;28;20393;-70
2021/04/22 04:55:52;;;;;;;23.13;5.03;;;4.70;75.20;;;;;;2072392;28;20030;-70
2021/04/22 04:56:53;;;;;;;25.70;5.18;;;4.60;75.40;;;;;;2067459;28;20030;-72
2021/04/22 04:57:54;;;;;;;24.98;5.13;;;4.60;76.00;;;;;;2071292;28;20044;-71
2021/04/22 04:58:54;;;;;;;22.65;5.30;;;4.60;75.80;;;;;;2073504;28;20026;-70
2021/04/22 04:59:55;;;;;;;22.88;4.63;;;4.70;75.40;;;;;;2067107;28;20517;-70
2021/04/22 05:00:55;;;;;;;21.38;4.97;;;4.70;74.90;;;;;;2064755;28;20054;-70
2021/04/22 05:01:56;;;;;;;24.48;5.30;;;4.90;75.30;;;;;;2070300;28;20062;-70
2021/04/22 05:02:57;;;;;;;26.83;5.72;;;5.00;75.00;;;;;;2066549;28;20030;-70
2021/04/22 05:03:57;;;;;;;25.05;5.20;;;5.10;74.20;;;;;;2077960;28;20025;-70
2021/04/22 05:04:58;;;;;;;21.58;4.90;;;5.10;73.10;;;;;;2080073;28;20033;-70
2021/04/22 05:05:58;;;;;;;23.38;5.35;;;5.10;73.10;;;;;;2071513;28;20112;-71
2021/04/22 05:06:59;;;;;;;19.35;5.25;;;5.10;73.10;;;;;;2072155;28;20040;-70
2021/04/22 05:08:00;;;;;;;24.00;5.07;;;5.10;73.40;;;;;;2080060;28;20380;-70
2021/04/22 05:09:01;;;;;;;20.33;5.18;;;5.10;73.10;;;;;;2072570;28;20030;-70
2021/04/22 05:10:02;;;;;;;22.08;5.28;;;5.10;73.80;;;;;;2072518;28;20068;-70
2021/04/22 05:11:03;;;;;;;21.63;5.30;;;5.10;73.80;;;;;;2072588;28;20018;-71
2021/04/22 05:12:04;;;;;;;24.63;5.45;;;5.00;74.10;;;;;;2072432;28;20033;-70
2021/04/22 05:13:05;;;;;;;26.65;5.15;;;5.00;74.00;;;;;;2072591;28;20109;-70
2021/04/22 05:14:05;;;;;;;24.30;5.13;;;5.00;73.90;;;;;;2072596;28;20654;-70
2021/04/22 05:15:07;;;;;;;26.63;5.43;;;5.00;73.80;;;;;;2072484;28;20069;-70
2021/04/22 05:16:07;;;;;;;22.58;5.15;;;5.00;73.50;;;;;;2072044;28;20034;-70
2021/04/22 05:17:08;;;;;;;29.27;5.55;;;5.10;74.40;;;;;;2072383;28;20029;-70
2021/04/22 05:18:09;;;;;;;24.95;5.75;;;5.10;74.80;;;;;;2072478;28;20033;-70
2021/04/22 05:19:09;;;;;;;27.23;5.88;;;5.20;73.90;;;;;;2072513;28;20842;-71
2021/04/22 05:20:10;;;;;;;21.05;5.78;;;5.20;72.60;;;;;;2072576;28;20493;-71